Latest Coastal Weather Observations for Barrow Island

IDW60701

Issued at 5:55 am WST Wednesday 22 October 2014 (issued every 10 minutes, with the page automatically refreshed every 10 minutes)

About coastal observations | Map of coastal stations | Coastal observations for WA | Marine services | Other Formats
Station Details ID: 005094 Name: BARROW ISLAND AIRPORT Lat: -20.88 Lon: 115.41 Height: 6.4 m
Data from the previous 72 hours. | See also: Recent months at Barrow Island
Date/Time
WST
Temp

°C
Wind Pressure Rain
since 9am
mm
Weather Cloud Vis
km
Sea
Height
m
Swell
Dir
 
Speed
knots
Gust
knots
hPa Trend Height
m
Period
s
Dir
22/05:30am 22.2 S 17 20 1015.4 - 0.0 - - - - - - -
22/05:00am 22.2 S 21 23 1014.5 - 0.0 - - - - - - -
22/04:30am 22.4 S 21 24 1014.5 - 0.0 - - - - - - -
22/04:00am 22.6 S 20 23 1014.5 - 0.0 - - - - - - -
22/03:30am 22.7 S 19 23 1014.6 - 0.0 - - - - - - -
22/03:00am 22.7 S 20 23 1014.5 - 0.0 - - - - - - -
22/02:30am 22.9 S 19 21 1014.6 - 0.0 - - - - - - -
22/02:00am 23.1 SSW 19 22 1014.8 - 0.0 - - - - - - -
22/01:30am 23.3 SSW 17 19 1015.0 - 0.0 - - - - - - -
22/01:00am 23.3 SSW 19 21 1015.2 - 0.0 - - - - - - -
22/12:30am 23.7 SSW 18 21 1015.2 - 0.0 - - - - - - -
22/12:00am 23.9 SSW 17 21 1015.5 - 0.0 - - - - - - -
 
Date/Time
WST
Temp

°C
Wind Pressure Rain
since 9am
mm
Weather Cloud Vis
km
Sea
Height
m
Swell
Dir
 
Speed
knots
Gust
knots
hPa Trend Height
m
Period
s
Dir
21/11:30pm 24.1 SW 16 18 1015.7 - 0.0 - - - - - - -
21/11:00pm 24.0 SW 17 19 1016.1 - 0.0 - - - - - - -
21/10:30pm 23.7 SW 14 17 1016.2 - 0.0 - - - - - - -
21/10:00pm 23.7 SW 15 18 1016.3 - 0.0 - - - - - - -
21/09:30pm 23.6 SW 14 18 1016.4 - 0.0 - - - - - - -
21/09:00pm 23.6 SW 13 16 1016.4 - 0.0 - - - - - - -
21/08:30pm 23.6 SW 16 19 1016.2 - 0.0 - - - - - - -
21/08:00pm 23.7 SW 15 17 1016.0 - 0.0 - - - - - - -
21/07:30pm 23.7 SW 14 17 1015.8 - 0.0 - - - - - - -
21/07:00pm 23.6 SW 13 15 1015.5 - 0.0 - - - - - - -
21/06:30pm 24.1 WSW 12 16 1015.4 - 0.0 - - - - - - -
21/06:00pm 24.6 WSW 14 16 1015.2 - 0.0 - - - - - - -
21/05:30pm 25.5 WSW 15 18 1015.1 - 0.0 - - - - - - -
21/05:00pm 25.8 WSW 15 18 1015.0 - 0.0 - - - - - - -
21/04:30pm 26.6 WSW 14 17 1015.0 - 0.0 - - - - - - -
21/04:00pm 27.1 WSW 13 16 1015.0 - 0.0 - - - - - - -
21/03:30pm 27.9 WSW 12 14 1014.8 - 0.0 - - - - - - -
21/03:00pm 27.9 SW 13 15 1015.0 - 0.0 - - - - - - -
21/02:30pm 27.7 SW 12 16 1015.2 - 0.0 - - - - - - -
21/02:00pm 27.4 WSW 12 15 1015.6 - 0.0 - - - - - - -
21/01:30pm 27.4 WSW 13 16 1015.8 - 0.0 - - - - - - -
21/01:00pm 27.6 SW 12 16 1016.1 - 0.0 - - - - - - -
21/12:30pm 26.9 SW 12 16 1016.5 - 0.0 - - - - - - -
21/12:00pm 26.3 SW 13 15 1016.8 - 0.0 - - - - - - -
21/11:30am 25.6 SSW 13 15 1017.0 - 0.0 - - - - - - -
21/11:00am 25.2 SSW 11 13 1017.1 - 0.0 - - - - - - -
21/10:30am 25.3 SSW 11 13 1017.5 - 0.0 - - - - - - -
21/10:00am 25.0 SSW 10 12 1017.7 - 0.0 - - - - - - -
21/09:30am 24.6 SSW 10 11 1017.8 - 0.0 - - - - - - -
21/09:00am 24.1 SSW 10 13 1017.8 - 0.0 - - - - - - -
21/08:30am 23.6 SSW 12 14 1017.4 - 0.0 - - - - - - -
21/08:00am 23.3 SSW 14 16 1017.3 - 0.0 - - - - - - -
21/07:30am 22.8 SSW 14 16 1017.2 - 0.0 - - - - - - -
21/07:00am 22.6 SSW 14 17 1017.0 - 0.0 - - - - - - -
21/06:30am 22.2 SSW 16 18 1016.7 - 0.0 - - - - - - -
21/06:00am 21.8 SSW 16 19 1016.4 - 0.0 - - - - - - -
21/05:30am 21.8 SSW 16 17 1016.2 - 0.0 - - - - - - -
21/05:00am 21.9 SSW 16 19 1016.0 - 0.0 - - - - - - -
21/04:30am 22.1 SSW 18 20 1015.9 - 0.0 - - - - - - -
21/04:00am 21.9 SSW 17 20 1015.7 - 0.0 - - - - - - -
21/03:30am 21.9 SSW 16 19 1015.7 - 0.0 - - - - - - -
21/03:00am 21.6 SW 16 19 1015.7 - 0.0 - - - - - - -
21/02:30am 21.8 SW 16 18 1015.8 - 0.0 - - - - - - -
21/02:00am 21.9 SW 15 19 1015.7 - 0.0 - - - - - - -
21/01:30am 22.2 SW 15 19 1015.9 - 0.0 - - - - - - -
21/01:00am 22.2 SW 14 18 1016.0 - 0.0 - - - - - - -
21/12:30am 22.3 SW 16 18 1016.0 - 0.0 - - - - - - -
21/12:00am 22.3 WSW 14 17 1016.2 - 0.0 - - - - - - -
 
Date/Time
WST
Temp

°C
Wind Pressure Rain
since 9am
mm
Weather Cloud Vis
km
Sea
Height
m
Swell
Dir
 
Speed
knots
Gust
knots
hPa Trend Height
m
Period
s
Dir
20/11:30pm 22.3 WSW 12 15 1016.4 - 0.0 - - - - - - -
20/11:00pm 22.4 WSW 15 18 1016.6 - 0.0 - - - - - - -
20/10:30pm 22.3 WSW 15 18 1016.8 - 0.0 - - - - - - -
20/10:00pm 22.4 WSW 17 21 1016.8 - 0.0 - - - - - - -
20/09:30pm 22.5 WSW 17 21 1016.8 - 0.0 - - - - - - -
20/09:00pm 22.3 WSW 15 19 1016.6 - 0.0 - - - - - - -
20/08:30pm 22.5 W 14 17 1016.4 - 0.0 - - - - - - -
20/08:00pm 22.5 W 13 17 1016.2 - 0.0 - - - - - - -
20/07:30pm 22.5 W 13 16 1016.0 - 0.0 - - - - - - -
20/06:30pm 23.3 WSW 14 18 1015.1 - 0.0 - - - - - - -
20/06:00pm 24.2 WSW 14 17 1014.8 - 0.0 - - - - - - -
20/05:30pm 25.1 WSW 15 18 1014.5 - 0.0 - - - - - - -
20/05:00pm 25.1 WSW 17 22 1014.4 - 0.0 - - - - - - -
20/04:30pm 25.5 WSW 17 20 1014.3 - 0.0 - - - - - - -
20/04:00pm 25.7 WSW 16 20 1014.4 - 0.0 - - - - - - -
20/03:30pm 26.2 WSW 15 19 1014.4 - 0.0 - - - - - - -
20/03:00pm 26.4 WSW 14 18 1014.5 - 0.0 - - - - - - -
20/02:30pm 26.8 WSW 14 18 1014.5 - 0.0 - - - - - - -
20/02:00pm 26.9 SW 13 16 1014.7 - 0.0 - - - - - - -
20/01:30pm 26.7 SSW 11 15 1015.0 - 0.0 - - - - - - -
20/01:00pm 26.4 SW 11 15 1015.3 - 0.0 - - - - - - -
20/12:30pm 25.7 SSW 11 14 1015.7 - 0.0 - - - - - - -
20/12:00pm 25.0 SSW 13 15 1016.2 - 0.0 - - - - - - -
20/11:30am 24.4 SSW 13 17 1016.4 - 0.0 - - - - - - -
20/11:00am 24.5 SSW 13 15 1016.8 - 0.0 - - - - - - -
20/10:30am 23.9 S 14 16 1017.0 - 0.0 - - - - - - -
20/10:00am 23.6 S 14 16 1017.4 - 0.0 - - - - - - -
20/09:30am 23.3 S 14 18 1017.6 - 0.0 - - - - - - -
20/09:00am 23.2 S 17 20 1017.5 - 0.0 - - - - - - -
20/08:30am 22.5 S 18 21 1017.5 - 0.0 - - - - - - -
20/08:00am 22.2 S 18 20 1017.3 - 0.0 - - - - - - -
20/07:30am 21.8 S 18 21 1017.1 - 0.0 - - - - - - -
20/07:00am 21.6 S 17 20 1016.9 - 0.0 - - - - - - -
20/06:30am 21.7 S 16 19 1016.7 - 0.0 - - - - - - -
20/06:00am 21.0 S 16 19 1016.4 - 0.0 - - - - - - -
20/05:30am 21.0 S 16 19 1016.0 - 0.0 - - - - - - -
20/05:00am 21.0 S 17 20 1015.6 - 0.0 - - - - - - -
20/04:30am 21.3 S 17 20 1015.3 - 0.0 - - - - - - -
20/04:00am 21.3 S 19 21 1014.9 - 0.0 - - - - - - -
20/03:30am 21.4 S 19 23 1014.8 - 0.0 - - - - - - -
20/03:00am 21.4 SSW 19 23 1014.8 - 0.0 - - - - - - -
20/02:30am 21.5 SSW 18 22 1015.0 - 0.0 - - - - - - -
20/02:00am 21.5 SSW 19 22 1015.1 - 0.0 - - - - - - -
20/01:30am 21.7 SSW 18 23 1015.2 - 0.0 - - - - - - -
20/01:00am 21.7 SSW 19 22 1015.3 - 0.0 - - - - - - -
20/12:30am 22.1 SSW 20 23 1015.2 - 0.0 - - - - - - -
20/12:00am 22.4 SSW 21 24 1015.4 - 0.0 - - - - - - -
 
Date/Time
WST
Temp

°C
Wind Pressure Rain
since 9am
mm
Weather Cloud Vis
km
Sea
Height
m
Swell
Dir
 
Speed
knots
Gust
knots
hPa Trend Height
m
Period
s
Dir
19/11:30pm 22.5 SW 20 24 1015.5 - 0.0 - - - - - - -
19/11:00pm 22.8 SW 19 23 1015.8 - 0.0 - - - - - - -
19/10:30pm 22.6 SW 17 22 1015.8 - 0.0 - - - - - - -
19/10:00pm 22.5 SW 16 21 1015.8 - 0.0 - - - - - - -
19/09:30pm 22.4 SW 18 23 1015.6 - 0.0 - - - - - - -
19/09:00pm 22.6 WSW 18 21 1015.4 - 0.0 - - - - - - -
19/08:30pm 22.5 WSW 15 19 1015.3 - 0.0 - - - - - - -
19/08:00pm 22.6 SW 15 18 1015.1 - 0.0 - - - - - - -
19/07:30pm 22.9 SW 19 22 1014.8 - 0.0 - - - - - - -
19/07:00pm 23.0 SW 18 23 1014.4 - 0.0 - - - - - - -
19/06:30pm 23.4 SW 20 24 1014.0 - 0.0 - - - - - - -
19/06:00pm 23.7 SW 20 24 1013.7 - 0.0 - - - - - - -
19/05:30pm 24.3 SW 20 24 1013.5 - 0.0 - - - - - - -
19/05:00pm 24.5 SW 20 23 1013.4 - 0.0 - - - - - - -
19/04:30pm 25.1 SW 18 23 1013.5 - 0.0 - - - - - - -
19/04:00pm 25.6 SW 17 22 1013.4 - 0.0 - - - - - - -
19/03:30pm 25.9 SW 15 20 1013.6 - 0.0 - - - - - - -
19/03:00pm 26.1 SW 14 19 1013.6 - 0.0 - - - - - - -
19/02:30pm 26.0 SW 16 21 1013.8 - 0.0 - - - - - - -
19/02:00pm 26.1 SSW 15 18 1014.1 - 0.0 - - - - - - -
19/01:30pm 26.1 SSW 13 17 1014.4 - 0.0 - - - - - - -
19/01:00pm 25.8 SSW 12 15 1014.8 - 0.0 - - - - - - -
19/12:30pm 25.4 S 13 16 1015.1 - 0.0 - - - - - - -
19/12:00pm 25.4 S 14 17 1015.4 - 0.0 - - - - - - -
19/11:30am 25.2 SSW 14 17 1015.5 - 0.0 - - - - - - -
19/11:00am 25.2 SSW 14 17 1015.9 - 0.0 - - - - - - -
19/10:30am 24.6 SSW 15 17 1016.1 - 0.0 - - - - - - -
19/10:00am 24.4 S 16 20 1016.2 - 0.0 - - - - - - -
19/09:30am 24.2 S 15 18 1016.3 - 0.0 - - - - - - -
19/09:00am 23.9 S 14 16 1016.3 - 0.0 - - - - - - -
19/08:30am 24.1 S 13 17 1016.2 - 0.0 - - - - - - -
19/08:00am 23.2 S 16 19 1016.0 - 0.0 - - - - - - -
19/07:30am 23.2 S 15 18 1015.8 - 0.0 - - - - - - -
19/07:00am 23.0 S 16 19 1015.6 - 0.0 - - - - - - -
19/06:30am 22.7 S 16 19 1015.1 - 0.0 - - - - - - -
19/06:00am 22.4 SSW 15 18 1014.7 - 0.0 - - - - - - -

Other Formats:

Comma delimited format used in spreadsheet applications
http://www.bom.gov.au/fwo/IDW60701/IDW60701.95304.axf

JavaScript Object Notation format (JSON) in row-major order
http://www.bom.gov.au/fwo/IDW60701/IDW60701.95304.json